Time;durP1;ratioP1;P1;durP2;ratioP2;P2;SDS_P1;SDS_P2;PMS_P1;PMS_P2;Temp;Humidity;BMP_temperature;BMP_pressure;BME280_temperature;BME280_humidity;BME280_pressure;Samples;Min_cycle;Max_cycle;Signal;HPM_P1;HPM_P2
2023/08/31 00:00:59;;;;;;;;;4.50;4.00;;;;;;;;5028756;28;9377;-80
2023/08/31 00:03:26;;;;;;;;;4.00;4.00;;;;;;;;5028659;28;9576;-80
2023/08/31 00:05:53;;;;;;;;;4.00;4.00;;;;;;;;5030303;28;9528;-79
2023/08/31 00:08:22;;;;;;;;;5.25;4.25;;;;;;;;5030431;28;9619;-80
2023/08/31 00:10:57;;;;;;;;;4.50;4.50;;;;;;;;5031253;28;9429;-79
2023/08/31 00:13:26;;;;;;;;;2.00;2.00;;;;;;;;5031927;28;9683;-79
2023/08/31 00:15:56;;;;;;;;;4.50;4.50;;;;;;;;5016349;28;9472;-80
2023/08/31 00:18:29;;;;;;;;;4.00;4.00;;;;;;;;5029247;28;9560;-80
2023/08/31 00:20:59;;;;;;;;;5.00;5.00;;;;;;;;5017211;28;10211;-80
2023/08/31 00:23:27;;;;;;;;;5.75;3.00;;;;;;;;5026537;28;10353;-79
2023/08/31 00:25:57;;;;;;;;;6.00;3.00;;;;;;;;5027718;28;9558;-82
2023/08/31 00:28:27;;;;;;;;;5.00;5.00;;;;;;;;5028978;28;10537;-78
2023/08/31 00:30:57;;;;;;;;;4.50;4.50;;;;;;;;5028063;28;9725;-79
2023/08/31 00:33:27;;;;;;;;;6.00;6.00;;;;;;;;5019697;28;9624;-77
2023/08/31 00:35:56;;;;;;;;;4.50;4.50;;;;;;;;5026961;28;9730;-79
2023/08/31 00:38:23;;;;;;;;;6.75;6.75;;;;;;;;5021775;28;10577;-79
2023/08/31 00:40:50;;;;;;;;;5.00;5.00;;;;;;;;5031187;28;9915;-79
2023/08/31 00:43:18;;;;;;;;;4.00;4.00;;;;;;;;5021898;28;9738;-80
2023/08/31 00:45:49;;;;;;;;;5.75;5.25;;;;;;;;5028807;28;9721;-79
2023/08/31 00:48:17;;;;;;;;;4.50;4.50;;;;;;;;5032918;28;9693;-80
2023/08/31 00:50:45;;;;;;;;;3.25;3.25;;;;;;;;5033356;28;9718;-79
2023/08/31 00:53:12;;;;;;;;;5.00;5.00;;;;;;;;5031331;28;9710;-79
2023/08/31 00:55:40;;;;;;;;;6.25;6.25;;;;;;;;5030449;28;9719;-81
2023/08/31 00:58:08;;;;;;;;;2.75;2.75;;;;;;;;5030177;28;9701;-80
2023/08/31 01:00:45;;;;;;;;;3.75;3.75;;;;;;;;5030840;28;9707;-80
2023/08/31 01:03:19;;;;;;;;;6.50;4.75;;;;;;;;5031578;28;9775;-79
2023/08/31 01:05:55;;;;;;;;;6.25;6.25;;;;;;;;5031087;28;9818;-79
2023/08/31 01:08:34;;;;;;;;;5.50;5.50;;;;;;;;5031360;28;9804;-79
2023/08/31 01:11:09;;;;;;;;;5.00;5.00;;;;;;;;5026039;28;9796;-79
2023/08/31 01:13:38;;;;;;;;;6.25;6.00;;;;;;;;5023965;28;9796;-80
2023/08/31 01:16:07;;;;;;;;;6.00;5.75;;;;;;;;5030315;28;9951;-79
2023/08/31 01:18:38;;;;;;;;;5.00;5.00;;;;;;;;5030852;28;9893;-79
2023/08/31 01:21:13;;;;;;;;;4.00;4.00;;;;;;;;5018493;28;9799;-81
2023/08/31 01:23:54;;;;;;;;;6.50;5.50;;;;;;;;5029671;28;9901;-79
2023/08/31 01:26:21;;;;;;;;;8.50;6.75;;;;;;;;5030690;28;9775;-79
2023/08/31 01:28:49;;;;;;;;;6.00;6.00;;;;;;;;5029945;28;10556;-79
2023/08/31 01:31:17;;;;;;;;;5.00;5.00;;;;;;;;5030169;28;9656;-79
2023/08/31 01:33:44;;;;;;;;;5.00;4.25;;;;;;;;5030160;28;9794;-79
2023/08/31 01:36:16;;;;;;;;;6.75;5.75;;;;;;;;5030938;28;9707;-78
2023/08/31 01:38:49;;;;;;;;;6.00;6.00;;;;;;;;5030650;28;9702;-79
2023/08/31 01:41:20;;;;;;;;;2.00;2.00;;;;;;;;5029240;28;9719;-81
2023/08/31 01:43:50;;;;;;;;;4.00;4.00;;;;;;;;5030353;28;10531;-79
2023/08/31 01:46:17;;;;;;;;;4.25;4.25;;;;;;;;5030652;28;9571;-79
2023/08/31 01:48:44;;;;;;;;;4.50;4.50;;;;;;;;5031989;28;9769;-79
2023/08/31 01:51:12;;;;;;;;;5.00;4.00;;;;;;;;5032844;28;9641;-78
2023/08/31 01:53:39;;;;;;;;;8.50;6.50;;;;;;;;5021393;28;9795;-79
2023/08/31 01:56:07;;;;;;;;;6.75;6.75;;;;;;;;5033169;28;9791;-78
2023/08/31 01:58:35;;;;;;;;;4.00;4.00;;;;;;;;5033128;28;10029;-79
2023/08/31 02:01:02;;;;;;;;;6.50;4.75;;;;;;;;5032075;28;9818;-81
2023/08/31 02:03:30;;;;;;;;;4.00;4.00;;;;;;;;5029342;28;9897;-78
2023/08/31 02:05:57;;;;;;;;;5.50;5.50;;;;;;;;5029971;28;9827;-80
2023/08/31 02:08:24;;;;;;;;;8.00;6.00;;;;;;;;5029982;28;9868;-81
2023/08/31 02:10:53;;;;;;;;;4.50;4.50;;;;;;;;5029606;28;9788;-78
2023/08/31 02:13:20;;;;;;;;;5.75;4.00;;;;;;;;5030717;28;9860;-79
2023/08/31 02:15:53;;;;;;;;;6.50;4.75;;;;;;;;5029599;28;9746;-80
2023/08/31 02:18:20;;;;;;;;;2.75;2.75;;;;;;;;5029600;28;9932;-79
2023/08/31 02:20:47;;;;;;;;;5.25;5.25;;;;;;;;5028955;28;9883;-79
2023/08/31 02:23:14;;;;;;;;;6.00;6.00;;;;;;;;5029397;28;9946;-79
2023/08/31 02:25:42;;;;;;;;;5.00;4.00;;;;;;;;5028499;28;9900;-79
2023/08/31 02:28:09;;;;;;;;;7.00;5.00;;;;;;;;5029425;28;10628;-79
2023/08/31 02:30:36;;;;;;;;;6.00;4.25;;;;;;;;5026789;28;9983;-78
2023/08/31 02:33:05;;;;;;;;;6.75;4.75;;;;;;;;5029265;28;9940;-79
2023/08/31 02:35:32;;;;;;;;;7.75;7.00;;;;;;;;5028056;28;9940;-78
2023/08/31 02:37:59;;;;;;;;;5.00;5.00;;;;;;;;5025269;28;10704;-78
2023/08/31 02:40:27;;;;;;;;;4.00;4.00;;;;;;;;5028757;28;9874;-79
2023/08/31 02:42:54;;;;;;;;;5.75;5.75;;;;;;;;5029404;28;10066;-78
2023/08/31 02:45:21;;;;;;;;;6.50;6.50;;;;;;;;5028774;28;10048;-78
2023/08/31 02:47:49;;;;;;;;;4.75;4.25;;;;;;;;5029566;28;10155;-82
2023/08/31 02:50:18;;;;;;;;;6.00;6.00;;;;;;;;5028763;28;9952;-79
2023/08/31 02:52:45;;;;;;;;;4.00;4.00;;;;;;;;5029138;28;9943;-79
2023/08/31 02:55:12;;;;;;;;;5.75;5.00;;;;;;;;5027573;28;10047;-79
2023/08/31 02:57:40;;;;;;;;;5.00;5.00;;;;;;;;5027795;28;9919;-77
2023/08/31 03:00:12;;;;;;;;;4.75;4.75;;;;;;;;5028091;28;9973;-78
2023/08/31 03:02:39;;;;;;;;;4.00;4.00;;;;;;;;5027933;28;10039;-78
2023/08/31 03:05:07;;;;;;;;;4.75;3.75;;;;;;;;5029038;28;9936;-79
2023/08/31 03:07:36;;;;;;;;;5.50;3.00;;;;;;;;5028398;28;9871;-79
2023/08/31 03:10:05;;;;;;;;;3.00;3.00;;;;;;;;5028795;28;9868;-79
2023/08/31 03:12:32;;;;;;;;;3.75;3.75;;;;;;;;5028793;28;10053;-78
2023/08/31 03:14:59;;;;;;;;;3.75;3.75;;;;;;;;5031797;28;10032;-79
2023/08/31 03:17:27;;;;;;;;;4.00;4.00;;;;;;;;5031675;28;9920;-83
2023/08/31 03:19:57;;;;;;;;;3.75;3.75;;;;;;;;5029827;28;10098;-84
2023/08/31 03:22:35;;;;;;;;;4.75;3.75;;;;;;;;5030337;28;10170;-79
2023/08/31 03:25:04;;;;;;;;;5.25;5.00;;;;;;;;5029817;28;9965;-79
2023/08/31 03:27:31;;;;;;;;;6.00;5.00;;;;;;;;5028755;28;10097;-78
2023/08/31 03:29:59;;;;;;;;;7.25;5.00;;;;;;;;5029480;28;10025;-78
2023/08/31 03:32:26;;;;;;;;;2.50;2.50;;;;;;;;5029265;28;10060;-79
2023/08/31 03:34:58;;;;;;;;;7.50;4.25;;;;;;;;5031634;28;9999;-78
2023/08/31 03:37:25;;;;;;;;;5.00;5.00;;;;;;;;5029350;28;10002;-82
2023/08/31 03:39:53;;;;;;;;;6.75;6.75;;;;;;;;5031196;28;9940;-79
2023/08/31 03:42:24;;;;;;;;;6.00;6.00;;;;;;;;5031405;28;9781;-82
2023/08/31 03:44:51;;;;;;;;;4.75;4.75;;;;;;;;5031764;28;9788;-79
2023/08/31 03:47:18;;;;;;;;;7.75;5.25;;;;;;;;5028809;28;9926;-78
2023/08/31 03:49:45;;;;;;;;;2.50;2.50;;;;;;;;5027388;28;9855;-77
2023/08/31 03:52:19;;;;;;;;;5.50;5.00;;;;;;;;5017145;28;9726;-78
2023/08/31 03:54:46;;;;;;;;;4.50;4.50;;;;;;;;5027853;28;9772;-77
2023/08/31 03:57:13;;;;;;;;;8.00;4.75;;;;;;;;5027692;28;9803;-78
2023/08/31 03:59:42;;;;;;;;;3.50;2.25;;;;;;;;5027131;28;9702;-78
2023/08/31 04:02:09;;;;;;;;;2.25;2.25;;;;;;;;5026898;28;9677;-78
2023/08/31 04:04:36;;;;;;;;;5.25;5.00;;;;;;;;5026875;28;9622;-78
2023/08/31 04:07:06;;;;;;;;;5.25;5.25;;;;;;;;5027909;28;9645;-79
2023/08/31 04:09:36;;;;;;;;;4.50;4.50;;;;;;;;5031180;28;9600;-80
2023/08/31 04:12:03;;;;;;;;;4.75;4.75;;;;;;;;5032032;28;9566;-82
2023/08/31 04:14:33;;;;;;;;;6.50;5.50;;;;;;;;5032237;28;9756;-80
2023/08/31 04:17:04;;;;;;;;;4.25;4.00;;;;;;;;5032903;28;10443;-82
2023/08/31 04:19:36;;;;;;;;;5.50;4.00;;;;;;;;5030213;28;10312;-81
2023/08/31 04:22:06;;;;;;;;;5.75;4.00;;;;;;;;5031426;28;9397;-73
2023/08/31 04:24:33;;;;;;;;;4.25;4.25;;;;;;;;5030513;28;9589;-70
2023/08/31 04:27:00;;;;;;;;;4.00;4.00;;;;;;;;5030564;28;10189;-71
2023/08/31 04:29:27;;;;;;;;;5.00;4.00;;;;;;;;5030214;28;9409;-71
2023/08/31 04:31:58;;;;;;;;;4.00;4.00;;;;;;;;5029448;28;9568;-70
2023/08/31 04:34:27;;;;;;;;;3.00;3.00;;;;;;;;5030409;28;9420;-71
2023/08/31 04:36:54;;;;;;;;;2.50;2.50;;;;;;;;5029955;28;9452;-71
2023/08/31 04:39:22;;;;;;;;;5.00;5.00;;;;;;;;5030478;28;10264;-70
2023/08/31 04:41:49;;;;;;;;;4.67;3.00;;;;;;;;5029840;28;9404;-71
2023/08/31 04:44:17;;;;;;;;;6.33;5.00;;;;;;;;5030374;28;9293;-71
2023/08/31 04:46:46;;;;;;;;;3.67;3.67;;;;;;;;5029962;28;9266;-70
2023/08/31 04:49:13;;;;;;;;;4.33;4.33;;;;;;;;5030046;28;9328;-71
2023/08/31 04:51:42;;;;;;;;;4.67;3.00;;;;;;;;5030275;28;9247;-72
2023/08/31 04:54:10;;;;;;;;;5.00;5.00;;;;;;;;5030316;28;9196;-71
2023/08/31 04:56:37;;;;;;;;;5.67;5.67;;;;;;;;5029948;28;9266;-74
2023/08/31 04:59:05;;;;;;;;;5.00;3.33;;;;;;;;5030333;28;9274;-71
2023/08/31 05:01:32;;;;;;;;;4.00;4.00;;;;;;;;5029765;28;8975;-71
2023/08/31 05:04:03;;;;;;;;;5.00;5.00;;;;;;;;5030578;28;9079;-73
2023/08/31 05:06:30;;;;;;;;;5.00;5.00;;;;;;;;5030533;28;9960;-70
2023/08/31 05:09:02;;;;;;;;;5.67;4.00;;;;;;;;5029835;28;9111;-72
2023/08/31 05:11:39;;;;;;;;;5.00;4.00;;;;;;;;5019389;28;9181;-73
2023/08/31 05:14:06;;;;;;;;;6.00;6.00;;;;;;;;5032253;28;9082;-73
2023/08/31 05:16:34;;;;;;;;;5.00;5.00;;;;;;;;5032865;28;9022;-70
2023/08/31 05:19:01;;;;;;;;;4.00;4.00;;;;;;;;5032976;28;9041;-74
2023/08/31 05:21:30;;;;;;;;;4.67;4.67;;;;;;;;5032966;28;9007;-71
2023/08/31 05:23:58;;;;;;;;;4.00;4.00;;;;;;;;5035559;28;8959;-72
2023/08/31 05:26:26;;;;;;;;;5.33;5.33;;;;;;;;5031527;28;9126;-71
2023/08/31 05:28:53;;;;;;;;;5.00;5.00;;;;;;;;5028756;28;9035;-70
2023/08/31 05:31:20;;;;;;;;;3.25;3.00;;;;;;;;5029170;28;8984;-70
2023/08/31 05:33:47;;;;;;;;;4.00;4.00;;;;;;;;5029441;28;8884;-71
2023/08/31 05:36:14;;;;;;;;;4.33;4.33;;;;;;;;5029261;28;9128;-71
2023/08/31 05:38:42;;;;;;;;;4.67;3.67;;;;;;;;5028697;28;9816;-70
2023/08/31 05:41:11;;;;;;;;;6.00;4.00;;;;;;;;5029035;28;9033;-71
2023/08/31 05:43:39;;;;;;;;;4.00;4.00;;;;;;;;5028723;28;9057;-72
2023/08/31 05:46:07;;;;;;;;;3.00;3.00;;;;;;;;5029456;28;9025;-74
2023/08/31 05:48:43;;;;;;;;;6.00;5.67;;;;;;;;5029540;28;9859;-72
2023/08/31 05:51:11;;;;;;;;;4.00;4.00;;;;;;;;5029024;28;10036;-72
2023/08/31 05:53:38;;;;;;;;;5.00;3.33;;;;;;;;5017380;28;9026;-70
2023/08/31 05:56:08;;;;;;;;;6.00;4.50;;;;;;;;5029648;28;9676;-70
2023/08/31 05:58:37;;;;;;;;;3.00;3.00;;;;;;;;5029234;28;8867;-70
2023/08/31 06:01:08;;;;;;;;;5.00;5.00;;;;;;;;5028302;28;8846;-71
2023/08/31 06:03:42;;;;;;;;;4.00;4.00;;;;;;;;5029620;28;9123;-71
2023/08/31 06:06:12;;;;;;;;;4.00;4.00;;;;;;;;5028654;28;8830;-70
2023/08/31 06:08:39;;;;;;;;;4.00;4.00;;;;;;;;5029072;28;8871;-72
2023/08/31 06:11:08;;;;;;;;;3.00;3.00;;;;;;;;5028484;28;8836;-71
2023/08/31 06:13:41;;;;;;;;;4.00;4.00;;;;;;;;5028897;28;8944;-71
2023/08/31 06:16:09;;;;;;;;;4.50;3.75;;;;;;;;5028401;28;8859;-74
2023/08/31 06:18:44;;;;;;;;;5.00;4.00;;;;;;;;5029002;28;8894;-71
2023/08/31 06:21:14;;;;;;;;;4.00;4.00;;;;;;;;5028652;28;8838;-74
2023/08/31 06:23:41;;;;;;;;;4.00;4.00;;;;;;;;5028299;28;8879;-73
2023/08/31 06:26:13;;;;;;;;;3.00;3.00;;;;;;;;5028319;28;8984;-73
2023/08/31 06:28:42;;;;;;;;;2.50;2.50;;;;;;;;5028483;28;8906;-75
2023/08/31 06:31:13;;;;;;;;;2.75;2.75;;;;;;;;5027767;28;8813;-71
2023/08/31 06:33:40;;;;;;;;;3.25;3.25;;;;;;;;5027392;28;8942;-71
2023/08/31 06:36:10;;;;;;;;;5.00;3.00;;;;;;;;5028398;28;8861;-72
2023/08/31 06:38:37;;;;;;;;;6.00;4.75;;;;;;;;5028306;28;8860;-71
2023/08/31 06:41:05;;;;;;;;;2.75;2.75;;;;;;;;5029002;28;8864;-72
2023/08/31 06:43:32;;;;;;;;;3.25;3.25;;;;;;;;5028317;28;8876;-77
2023/08/31 06:46:00;;;;;;;;;5.00;5.00;;;;;;;;5028307;28;8870;-71
2023/08/31 06:48:28;;;;;;;;;4.25;4.00;;;;;;;;5027804;28;8856;-71
2023/08/31 06:51:08;;;;;;;;;;;;;;;;;;;;;
2023/08/31 06:53:38;;;;;;;;;4.00;4.00;;;;;;;;5029720;28;8890;-73
2023/08/31 06:56:08;;;;;;;;;6.50;4.75;;;;;;;;5031003;28;8875;-74
2023/08/31 06:58:38;;;;;;;;;6.25;3.75;;;;;;;;5020131;28;8860;-71
2023/08/31 07:01:09;;;;;;;;;4.25;4.00;;;;;;;;5030647;28;8835;-74
2023/08/31 07:03:39;;;;;;;;;5.25;3.25;;;;;;;;5032394;28;8876;-71
2023/08/31 07:06:09;;;;;;;;;4.50;3.00;;;;;;;;5028577;28;8930;-72
2023/08/31 07:08:37;;;;;;;;;4.00;4.00;;;;;;;;5028231;28;8874;-73
2023/08/31 07:11:04;;;;;;;;;3.00;3.00;;;;;;;;5030146;28;8848;-71
2023/08/31 07:13:32;;;;;;;;;4.00;4.00;;;;;;;;5028544;28;8922;-71
2023/08/31 07:16:00;;;;;;;;;6.75;4.00;;;;;;;;5024034;28;8859;-71
2023/08/31 07:18:29;;;;;;;;;4.25;2.75;;;;;;;;5019607;28;8871;-71
2023/08/31 07:20:56;;;;;;;;;4.75;3.75;;;;;;;;5027122;28;9454;-70
2023/08/31 07:23:23;;;;;;;;;6.50;4.00;;;;;;;;5027395;28;9790;-71
2023/08/31 07:25:50;;;;;;;;;4.50;4.50;;;;;;;;5027167;28;8848;-70
2023/08/31 07:28:36;;;;;;;;;4.75;2.75;;;;;;;;5027710;28;8904;-75
2023/08/31 07:31:20;;;;;;;;;;;;;;;;;;;;;
2023/08/31 07:33:49;;;;;;;;;5.50;4.00;;;;;;;;5011396;28;8840;-71
2023/08/31 07:36:17;;;;;;;;;5.75;4.00;;;;;;;;5027565;28;9738;-71
2023/08/31 07:38:44;;;;;;;;;4.75;4.75;;;;;;;;5027568;28;8868;-71
2023/08/31 07:41:11;;;;;;;;;4.00;3.75;;;;;;;;5027552;28;8856;-71
2023/08/31 07:43:41;;;;;;;;;4.00;4.00;;;;;;;;5027251;28;9007;-71
2023/08/31 07:46:08;;;;;;;;;4.75;4.75;;;;;;;;5027546;28;8860;-71
2023/08/31 07:48:35;;;;;;;;;5.50;4.25;;;;;;;;5027025;28;8848;-71
2023/08/31 07:51:07;;;;;;;;;2.25;2.25;;;;;;;;5028074;28;9002;-73
2023/08/31 07:53:36;;;;;;;;;5.00;5.00;;;;;;;;5027505;28;8848;-71
2023/08/31 07:56:04;;;;;;;;;4.25;4.25;;;;;;;;5027023;28;8860;-72
2023/08/31 07:58:31;;;;;;;;;5.00;5.00;;;;;;;;5027574;28;8875;-71
2023/08/31 08:00:58;;;;;;;;;4.75;2.75;;;;;;;;5026146;28;8786;-73
2023/08/31 08:03:26;;;;;;;;;3.00;3.00;;;;;;;;5026879;28;8907;-72
2023/08/31 08:05:53;;;;;;;;;4.50;4.50;;;;;;;;5026561;28;8857;-72
2023/08/31 08:08:22;;;;;;;;;6.00;4.25;;;;;;;;5027063;28;8864;-72
2023/08/31 08:10:53;;;;;;;;;3.50;3.50;;;;;;;;5026548;28;8963;-73
2023/08/31 08:13:23;;;;;;;;;5.00;5.00;;;;;;;;5026737;28;9541;-74
2023/08/31 08:15:51;;;;;;;;;4.25;4.00;;;;;;;;5026256;28;8855;-72
2023/08/31 08:18:18;;;;;;;;;3.50;3.50;;;;;;;;5027925;28;9638;-70
2023/08/31 08:20:48;;;;;;;;;3.50;3.00;;;;;;;;5027230;28;8948;-70
2023/08/31 08:23:16;;;;;;;;;5.00;3.00;;;;;;;;5027126;28;8891;-71
2023/08/31 08:25:44;;;;;;;;;4.75;3.75;;;;;;;;5025834;28;8898;-72
2023/08/31 08:28:11;;;;;;;;;5.00;4.00;;;;;;;;5026916;28;8864;-71
2023/08/31 08:30:38;;;;;;;;;4.50;4.50;;;;;;;;5026036;28;8794;-71
2023/08/31 08:33:09;;;;;;;;;4.25;2.50;;;;;;;;5028860;28;8974;-72
2023/08/31 08:35:39;;;;;;;;;2.50;2.50;;;;;;;;5029144;28;8876;-72
2023/08/31 08:38:12;;;;;;;;;3.00;3.00;;;;;;;;5026256;28;8860;-71
2023/08/31 08:40:39;;;;;;;;;2.00;2.00;;;;;;;;5018016;28;8984;-72
2023/08/31 08:43:08;;;;;;;;;3.75;3.75;;;;;;;;5030017;28;8888;-71
2023/08/31 08:45:41;;;;;;;;;4.75;3.50;;;;;;;;5029344;28;8870;-74
2023/08/31 08:48:08;;;;;;;;;3.25;1.75;;;;;;;;5026206;28;8878;-71
2023/08/31 08:50:37;;;;;;;;;0.75;0.75;;;;;;;;5027839;28;8863;-72
2023/08/31 08:53:06;;;;;;;;;2.00;2.00;;;;;;;;5027159;28;8898;-70
2023/08/31 08:55:36;;;;;;;;;4.50;3.00;;;;;;;;5028323;28;8861;-72
2023/08/31 08:58:08;;;;;;;;;4.25;2.75;;;;;;;;5030726;28;8841;-75
2023/08/31 09:00:36;;;;;;;;;6.00;3.00;;;;;;;;5030060;28;8784;-71
2023/08/31 09:03:06;;;;;;;;;3.00;2.50;;;;;;;;5029791;28;8871;-71
2023/08/31 09:05:34;;;;;;;;;4.75;2.25;;;;;;;;5030524;28;8848;-72
2023/08/31 09:08:02;;;;;;;;;3.40;1.40;;;;;;;;5029662;28;8975;-71
2023/08/31 09:10:36;;;;;;;;;2.60;1.00;;;;;;;;5029766;28;8860;-74
2023/08/31 09:13:08;;;;;;;;;3.00;2.00;;;;;;;;5030278;28;8959;-79
2023/08/31 09:15:47;;;;;;;;;1.20;1.20;;;;;;;;5029820;28;8856;-79
2023/08/31 09:18:23;;;;;;;;;2.00;2.00;;;;;;;;5029997;28;8867;-76
2023/08/31 09:20:51;;;;;;;;;1.25;1.25;;;;;;;;5028879;28;8870;-80
2023/08/31 09:23:18;;;;;;;;;3.00;3.00;;;;;;;;5029841;28;8852;-73
2023/08/31 09:25:48;;;;;;;;;5.00;2.00;;;;;;;;5030138;28;8875;-74
2023/08/31 09:28:17;;;;;;;;;3.25;2.25;;;;;;;;5031122;28;8871;-73
2023/08/31 09:30:45;;;;;;;;;2.25;2.00;;;;;;;;5029006;28;8812;-72
2023/08/31 09:33:16;;;;;;;;;1.60;1.60;;;;;;;;5029335;28;8864;-74
2023/08/31 09:35:50;;;;;;;;;2.00;1.20;;;;;;;;5017324;28;8856;-71
2023/08/31 09:38:18;;;;;;;;;2.75;2.75;;;;;;;;5028993;28;8890;-70
2023/08/31 09:40:45;;;;;;;;;2.60;1.40;;;;;;;;5029379;28;8874;-71
2023/08/31 09:43:12;;;;;;;;;2.40;2.00;;;;;;;;5028752;28;8848;-71
2023/08/31 09:45:41;;;;;;;;;2.00;2.00;;;;;;;;5029568;28;8865;-75
2023/08/31 09:48:08;;;;;;;;;2.25;2.25;;;;;;;;5029147;28;8889;-78
2023/08/31 09:50:35;;;;;;;;;3.80;3.00;;;;;;;;5029733;28;8848;-77
2023/08/31 09:53:04;;;;;;;;;5.20;3.80;;;;;;;;5029522;28;8860;-71
2023/08/31 09:55:35;;;;;;;;;3.40;3.40;;;;;;;;5030013;28;8938;-71
2023/08/31 09:58:03;;;;;;;;;2.00;2.00;;;;;;;;5029150;28;8855;-73
2023/08/31 10:00:31;;;;;;;;;2.80;2.80;;;;;;;;5028935;28;9582;-71
2023/08/31 10:03:02;;;;;;;;;4.80;3.20;;;;;;;;5028955;28;8864;-71
2023/08/31 10:05:29;;;;;;;;;2.60;2.60;;;;;;;;5029382;28;8999;-71
2023/08/31 10:07:56;;;;;;;;;3.00;3.00;;;;;;;;5028649;28;8880;-72
2023/08/31 10:10:23;;;;;;;;;4.20;3.00;;;;;;;;5029177;28;8897;-73
2023/08/31 10:12:52;;;;;;;;;3.40;3.40;;;;;;;;5029245;28;8896;-72
2023/08/31 10:15:19;;;;;;;;;5.80;3.80;;;;;;;;5031969;28;8949;-72
2023/08/31 10:17:50;;;;;;;;;5.60;4.00;;;;;;;;5030482;28;8856;-71
2023/08/31 10:20:19;;;;;;;;;3.00;3.00;;;;;;;;5032340;28;8888;-73
2023/08/31 10:22:46;;;;;;;;;1.40;1.40;;;;;;;;5033792;28;8955;-74
2023/08/31 10:25:13;;;;;;;;;1.80;1.60;;;;;;;;5032879;28;9751;-75
2023/08/31 10:27:42;;;;;;;;;2.80;2.80;;;;;;;;5016292;28;8883;-68
2023/08/31 10:30:26;;;;;;;;;2.60;2.00;;;;;;;;5028185;28;8882;-70
2023/08/31 10:33:23;;;;;;;;;2.20;1.80;;;;;;;;5028666;28;8856;-79
2023/08/31 10:35:53;;;;;;;;;2.00;2.00;;;;;;;;5015784;28;8887;-72
2023/08/31 10:38:28;;;;;;;;;2.20;1.60;;;;;;;;5030684;28;8851;-74
2023/08/31 10:41:22;;;;;;;;;2.60;2.60;;;;;;;;5030368;28;8856;-70
2023/08/31 10:43:52;;;;;;;;;3.20;2.00;;;;;;;;5030963;28;8871;-73
2023/08/31 10:46:20;;;;;;;;;4.00;3.00;;;;;;;;5027733;28;8872;-74
2023/08/31 10:48:54;;;;;;;;;2.40;2.40;;;;;;;;5028490;28;9685;-71
2023/08/31 10:51:27;;;;;;;;;3.60;2.00;;;;;;;;5027594;28;8856;-80
2023/08/31 10:54:10;;;;;;;;;3.20;3.20;;;;;;;;5028461;28;8856;-75
2023/08/31 10:56:54;;;;;;;;;3.00;3.00;;;;;;;;5028811;28;8856;-78
2023/08/31 10:59:21;;;;;;;;;3.80;2.80;;;;;;;;5027676;28;8856;-76
2023/08/31 11:01:57;;;;;;;;;2.60;2.60;;;;;;;;5027535;28;8816;-75
2023/08/31 11:04:25;;;;;;;;;2.40;2.40;;;;;;;;5027709;28;8848;-73
2023/08/31 11:07:14;;;;;;;;;1.80;1.80;;;;;;;;5028299;28;8852;-80
2023/08/31 11:09:41;;;;;;;;;3.40;1.80;;;;;;;;5027821;28;8848;-71
2023/08/31 11:12:09;;;;;;;;;3.00;3.00;;;;;;;;5027689;28;8880;-70
2023/08/31 11:14:39;;;;;;;;;2.60;2.40;;;;;;;;5027715;28;8886;-73
2023/08/31 11:17:07;;;;;;;;;1.80;1.80;;;;;;;;5027585;28;8870;-70
2023/08/31 11:19:35;;;;;;;;;2.40;2.40;;;;;;;;5027382;28;8852;-72
2023/08/31 11:22:03;;;;;;;;;3.20;3.20;;;;;;;;5027060;28;8902;-71
2023/08/31 11:24:32;;;;;;;;;5.20;2.80;;;;;;;;5027235;28;8959;-73
2023/08/31 11:26:59;;;;;;;;;4.60;2.40;;;;;;;;5027093;28;8917;-70
2023/08/31 11:29:27;;;;;;;;;3.60;2.00;;;;;;;;5027139;28;9045;-73
2023/08/31 11:32:00;;;;;;;;;2.00;2.00;;;;;;;;5026847;28;8824;-72
2023/08/31 11:34:27;;;;;;;;;3.20;1.80;;;;;;;;5027500;28;8911;-74
2023/08/31 11:36:55;;;;;;;;;0.00;0.00;;;;;;;;5023819;28;9682;-74
2023/08/31 11:39:22;;;;;;;;;0.40;0.20;;;;;;;;5027308;28;8886;-71
2023/08/31 11:41:51;;;;;;;;;5.00;2.00;;;;;;;;5027459;28;8874;-75
2023/08/31 11:44:18;;;;;;;;;6.20;2.00;;;;;;;;5027432;28;9639;-80
2023/08/31 11:46:48;;;;;;;;;3.00;2.80;;;;;;;;5027327;28;8882;-73
2023/08/31 11:49:15;;;;;;;;;3.20;3.20;;;;;;;;5027802;28;8876;-70
2023/08/31 11:51:43;;;;;;;;;4.40;3.00;;;;;;;;5027586;28;8848;-73
2023/08/31 11:54:11;;;;;;;;;3.80;2.60;;;;;;;;5027975;28;8887;-71
2023/08/31 11:56:43;;;;;;;;;2.80;2.80;;;;;;;;5028195;28;8856;-71
2023/08/31 11:59:12;;;;;;;;;4.40;3.00;;;;;;;;5029988;28;8872;-74
2023/08/31 12:01:41;;;;;;;;;3.80;3.60;;;;;;;;5029359;28;8843;-71
2023/08/31 12:04:12;;;;;;;;;5.00;4.80;;;;;;;;5030234;28;8855;-73
2023/08/31 12:06:39;;;;;;;;;4.00;3.00;;;;;;;;5030943;28;8914;-76
2023/08/31 12:09:10;;;;;;;;;5.80;4.00;;;;;;;;5027302;28;8870;-71
2023/08/31 12:11:37;;;;;;;;;4.20;2.40;;;;;;;;5027963;28;8868;-70
2023/08/31 12:14:18;;;;;;;;;3.00;3.00;;;;;;;;5026647;28;8914;-70
2023/08/31 12:16:47;;;;;;;;;3.20;3.20;;;;;;;;5027119;28;8863;-73
2023/08/31 12:19:15;;;;;;;;;3.40;3.40;;;;;;;;5026527;28;8878;-72
2023/08/31 12:21:44;;;;;;;;;5.20;4.20;;;;;;;;5027061;28;8895;-75
2023/08/31 12:24:13;;;;;;;;;3.60;2.80;;;;;;;;5025533;28;8879;-71
2023/08/31 12:26:41;;;;;;;;;9.00;4.00;;;;;;;;5031128;28;8848;-70
2023/08/31 12:29:08;;;;;;;;;3.50;3.50;;;;;;;;5026526;28;8936;-71
2023/08/31 12:31:37;;;;;;;;;3.25;3.25;;;;;;;;5029357;28;8784;-72
2023/08/31 12:34:06;;;;;;;;;3.25;3.25;;;;;;;;5030785;28;8891;-71
2023/08/31 12:36:36;;;;;;;;;5.75;5.25;;;;;;;;5030665;28;8840;-72
2023/08/31 12:39:06;;;;;;;;;5.00;5.00;;;;;;;;5030528;28;8871;-71
2023/08/31 12:41:33;;;;;;;;;5.00;5.00;;;;;;;;5030657;28;8984;-73
2023/08/31 12:44:01;;;;;;;;;4.50;4.50;;;;;;;;5030381;28;8856;-73
2023/08/31 12:46:28;;;;;;;;;5.75;4.75;;;;;;;;5030160;28;8892;-72
2023/08/31 12:48:55;;;;;;;;;6.25;4.75;;;;;;;;5030422;28;8894;-71
2023/08/31 12:51:23;;;;;;;;;3.50;3.50;;;;;;;;5030025;28;8882;-73
2023/08/31 12:53:51;;;;;;;;;3.00;3.00;;;;;;;;5030469;28;8872;-75
2023/08/31 12:56:21;;;;;;;;;5.00;4.75;;;;;;;;5029326;28;8841;-71
2023/08/31 12:58:49;;;;;;;;;4.00;4.00;;;;;;;;5030296;28;8870;-71
2023/08/31 13:01:17;;;;;;;;;4.25;4.25;;;;;;;;5029483;28;8799;-74
2023/08/31 13:03:44;;;;;;;;;5.50;4.00;;;;;;;;5030538;28;8860;-71
2023/08/31 13:06:11;;;;;;;;;4.50;4.50;;;;;;;;5029859;28;8852;-72
2023/08/31 13:08:40;;;;;;;;;6.00;4.25;;;;;;;;5030696;28;9151;-72
2023/08/31 13:11:07;;;;;;;;;4.25;3.00;;;;;;;;5029462;28;8848;-77
2023/08/31 13:13:34;;;;;;;;;3.00;3.00;;;;;;;;5029906;28;8868;-70
2023/08/31 13:16:02;;;;;;;;;4.50;4.50;;;;;;;;5029995;28;9007;-71
2023/08/31 13:18:29;;;;;;;;;6.75;5.25;;;;;;;;5029738;28;8855;-71
2023/08/31 13:20:57;;;;;;;;;5.25;4.75;;;;;;;;5029835;28;8888;-72
2023/08/31 13:23:24;;;;;;;;;6.00;4.50;;;;;;;;5029391;28;9635;-69
2023/08/31 13:25:53;;;;;;;;;5.00;5.00;;;;;;;;5028647;28;8864;-71
2023/08/31 13:28:20;;;;;;;;;6.25;6.25;;;;;;;;5029785;28;9667;-77
2023/08/31 13:30:47;;;;;;;;;9.00;6.75;;;;;;;;5029586;28;8806;-76
2023/08/31 13:33:15;;;;;;;;;9.00;7.50;;;;;;;;5029484;28;8898;-74
2023/08/31 13:35:42;;;;;;;;;9.25;6.50;;;;;;;;5030582;28;8860;-78
2023/08/31 13:38:10;;;;;;;;;8.25;7.25;;;;;;;;5028691;28;8872;-71
2023/08/31 13:40:37;;;;;;;;;9.50;7.00;;;;;;;;5019496;28;8898;-73
2023/08/31 13:43:06;;;;;;;;;6.00;6.00;;;;;;;;5031775;28;8890;-74
2023/08/31 13:45:33;;;;;;;;;8.00;6.25;;;;;;;;5033628;28;8852;-73
2023/08/31 13:48:04;;;;;;;;;6.00;5.75;;;;;;;;5031106;28;9659;-71
2023/08/31 13:50:31;;;;;;;;;6.25;6.00;;;;;;;;5029364;28;8995;-71
2023/08/31 13:52:58;;;;;;;;;6.00;6.00;;;;;;;;5028943;28;8937;-73
2023/08/31 13:55:27;;;;;;;;;4.50;4.50;;;;;;;;5028938;28;8852;-71
2023/08/31 13:57:54;;;;;;;;;5.00;5.00;;;;;;;;5029016;28;8883;-75
2023/08/31 14:00:23;;;;;;;;;7.75;6.00;;;;;;;;5028518;28;8868;-70
2023/08/31 14:02:50;;;;;;;;;7.00;7.00;;;;;;;;5029018;28;8872;-71
2023/08/31 14:05:17;;;;;;;;;7.50;5.25;;;;;;;;5028812;28;8882;-73
2023/08/31 14:07:44;;;;;;;;;9.00;7.00;;;;;;;;5028584;28;8848;-74
2023/08/31 14:10:12;;;;;;;;;8.25;7.00;;;;;;;;5028805;28;8891;-72
2023/08/31 14:12:39;;;;;;;;;11.75;10.25;;;;;;;;5028562;28;8851;-70
2023/08/31 14:15:07;;;;;;;;;7.75;7.75;;;;;;;;5028573;28;8926;-69
2023/08/31 14:17:36;;;;;;;;;8.00;6.50;;;;;;;;5028991;28;8840;-71
2023/08/31 14:20:07;;;;;;;;;7.25;6.25;;;;;;;;5029410;28;8844;-70
2023/08/31 14:22:35;;;;;;;;;8.75;8.25;;;;;;;;5028487;28;8848;-69
2023/08/31 14:25:03;;;;;;;;;7.00;7.00;;;;;;;;5029130;28;8973;-71
2023/08/31 14:27:31;;;;;;;;;7.25;7.25;;;;;;;;5027926;28;9728;-70
2023/08/31 14:29:58;;;;;;;;;6.00;6.00;;;;;;;;5028377;28;9064;-69
2023/08/31 14:32:26;;;;;;;;;6.50;6.50;;;;;;;;5027033;28;10121;-72
2023/08/31 14:34:55;;;;;;;;;6.75;5.50;;;;;;;;5028611;28;8970;-71
2023/08/31 14:37:23;;;;;;;;;7.00;7.00;;;;;;;;5019443;28;9092;-71
2023/08/31 14:39:50;;;;;;;;;7.50;6.00;;;;;;;;5028437;28;8984;-73
2023/08/31 14:42:20;;;;;;;;;5.00;5.00;;;;;;;;5028154;28;8864;-73
2023/08/31 14:44:47;;;;;;;;;5.25;5.25;;;;;;;;5027662;28;8922;-73
2023/08/31 14:47:14;;;;;;;;;5.75;5.00;;;;;;;;5028165;28;8852;-72
2023/08/31 14:49:44;;;;;;;;;5.75;5.25;;;;;;;;5027355;28;8888;-72
2023/08/31 14:52:13;;;;;;;;;6.50;6.50;;;;;;;;5028159;28;8864;-74
2023/08/31 14:54:40;;;;;;;;;7.00;6.25;;;;;;;;5027137;28;9622;-73
2023/08/31 14:57:07;;;;;;;;;9.25;8.00;;;;;;;;5027772;28;8852;-73
2023/08/31 14:59:34;;;;;;;;;5.75;5.50;;;;;;;;5028045;28;8855;-72
2023/08/31 15:02:04;;;;;;;;;6.75;5.50;;;;;;;;5027954;28;8818;-72
2023/08/31 15:04:32;;;;;;;;;5.50;5.50;;;;;;;;5028249;28;8969;-75
2023/08/31 15:06:59;;;;;;;;;3.25;3.25;;;;;;;;5027962;28;8860;-72
2023/08/31 15:09:27;;;;;;;;;5.25;5.25;;;;;;;;5027484;28;9026;-72